Time;durP1;ratioP1;P1;durP2;ratioP2;P2;SDS_P1;SDS_P2;PMS_P1;PMS_P2;Temp;Humidity;BMP_temperature;BMP_pressure;BME280_temperature;BME280_humidity;BME280_pressure;Samples;Min_cycle;Max_cycle;Signal;HPM_P1;HPM_P2
2021/08/04 00:02:23;;;;;;;4.15;2.40;;;16.20;99.90;;;;;;5033961;28;20116;-84
2021/08/04 00:04:49;;;;;;;4.03;2.45;;;16.20;99.90;;;;;;5032489;28;20033;-83
2021/08/04 00:07:14;;;;;;;4.72;2.30;;;16.20;99.90;;;;;;5033718;28;20171;-82
2021/08/04 00:09:40;;;;;;;2.92;1.90;;;16.20;99.90;;;;;;5033865;28;20029;-84
2021/08/04 00:12:06;;;;;;;3.47;2.25;;;16.20;99.90;;;;;;5033831;28;20470;-84
2021/08/04 00:14:32;;;;;;;4.00;1.90;;;16.20;99.90;;;;;;5032763;28;20156;-83
2021/08/04 00:16:58;;;;;;;2.70;1.80;;;16.30;99.90;;;;;;5033859;28;20449;-83
2021/08/04 00:19:23;;;;;;;4.80;2.00;;;16.20;99.90;;;;;;5033732;28;20476;-83
2021/08/04 00:21:49;;;;;;;4.00;2.58;;;16.20;99.90;;;;;;5033507;28;20065;-83
2021/08/04 00:24:15;;;;;;;5.60;2.05;;;16.10;99.90;;;;;;5033572;28;20037;-83
2021/08/04 00:26:41;;;;;;;3.13;2.10;;;16.20;99.90;;;;;;5033485;28;20035;-84
2021/08/04 00:29:07;;;;;;;3.63;2.35;;;16.20;99.90;;;;;;5032195;28;20030;-82
2021/08/04 00:31:32;;;;;;;3.95;1.85;;;16.20;99.90;;;;;;5033389;28;20037;-84
2021/08/04 00:33:58;;;;;;;6.28;2.00;;;16.10;99.90;;;;;;5015507;28;20034;-84
2021/08/04 00:36:24;;;;;;;4.90;1.92;;;16.10;99.90;;;;;;5033237;28;20124;-83
2021/08/04 00:38:50;;;;;;;3.45;2.00;;;16.10;99.90;;;;;;5033441;28;20036;-84
2021/08/04 00:41:15;;;;;;;4.35;2.10;;;16.10;99.90;;;;;;5033347;28;20037;-85
2021/08/04 00:43:41;;;;;;;5.20;1.90;;;16.10;99.90;;;;;;5033394;28;20501;-83
2021/08/04 00:46:07;;;;;;;5.68;2.40;;;16.10;99.90;;;;;;5031616;28;20049;-85
2021/08/04 00:48:32;;;;;;;4.35;2.15;;;16.10;99.90;;;;;;5033063;28;20041;-84
2021/08/04 00:50:58;;;;;;;3.53;1.92;;;16.10;99.90;;;;;;5031525;28;20033;-84
2021/08/04 00:53:29;;;;;;;4.18;2.85;;;16.10;99.90;;;;;;5015381;28;20542;-85
2021/08/04 00:55:57;;;;;;;;;;;16.10;99.90;;;;;;5015479;28;20083;-84
2021/08/04 00:58:34;;;;;;;5.75;2.05;;;16.10;99.90;;;;;;5033132;28;19999;-84
2021/08/04 01:01:28;;;;;;;3.03;1.90;;;16.10;99.90;;;;;;5031673;28;20034;-83
2021/08/04 01:04:06;;;;;;;3.45;1.83;;;16.10;99.90;;;;;;5031393;28;20483;-87
2021/08/04 01:07:06;;;;;;;6.53;1.70;;;16.10;99.90;;;;;;5031657;28;20086;-86
2021/08/04 01:09:45;;;;;;;5.75;2.00;;;16.10;99.90;;;;;;5032653;28;20105;-85
2021/08/04 01:12:22;;;;;;;2.63;1.70;;;16.00;99.90;;;;;;5031467;28;20029;-84
2021/08/04 01:14:54;;;;;;;2.88;1.75;;;16.10;99.90;;;;;;5031582;28;20034;-85
2021/08/04 01:17:20;;;;;;;2.92;1.67;;;16.20;99.90;;;;;;5031614;28;20509;-86
2021/08/04 01:20:18;;;;;;;2.90;1.80;;;16.20;99.90;;;;;;5032849;28;20033;-84
2021/08/04 01:23:13;;;;;;;6.70;1.80;;;16.20;99.90;;;;;;5032953;28;20025;-86
2021/08/04 01:26:19;;;;;;;2.90;1.70;;;16.10;99.90;;;;;;5032543;28;20461;-84
2021/08/04 01:28:48;;;;;;;3.08;1.65;;;16.20;99.90;;;;;;5033015;28;20052;-86
2021/08/04 01:31:18;;;;;;;5.85;1.75;;;16.20;99.90;;;;;;5031607;28;20068;-86
2021/08/04 01:33:48;;;;;;;4.03;2.17;;;16.20;99.90;;;;;;5031505;28;20026;-84
2021/08/04 01:36:14;;;;;;;3.00;1.80;;;16.20;99.90;;;;;;5031244;28;20051;-86
2021/08/04 01:38:41;;;;;;;5.10;1.73;;;16.20;99.90;;;;;;5032032;28;20033;-85
2021/08/04 01:41:08;;;;;;;3.15;1.60;;;16.20;99.90;;;;;;5030901;28;20040;-85
2021/08/04 01:43:36;;;;;;;3.50;1.83;;;16.20;99.90;;;;;;5031633;28;20049;-85
2021/08/04 01:46:03;;;;;;;5.13;1.95;;;16.20;99.90;;;;;;5030835;28;20041;-85
2021/08/04 01:48:29;;;;;;;4.55;2.13;;;16.20;99.90;;;;;;5031274;28;20037;-84
2021/08/04 01:51:01;;;;;;;3.97;2.00;;;16.20;99.90;;;;;;5031202;28;20549;-82
2021/08/04 01:53:30;;;;;;;3.67;1.80;;;16.10;99.90;;;;;;5031073;28;20041;-83
2021/08/04 01:55:57;;;;;;;3.08;1.70;;;16.10;99.90;;;;;;5030978;28;20033;-85
2021/08/04 01:58:23;;;;;;;3.03;1.88;;;16.10;99.90;;;;;;5030908;28;20029;-85
2021/08/04 02:00:49;;;;;;;4.47;1.92;;;16.20;99.90;;;;;;5032400;28;20030;-85
2021/08/04 02:03:14;;;;;;;2.92;1.67;;;16.20;99.90;;;;;;5031976;28;20037;-85
2021/08/04 02:05:40;;;;;;;3.67;2.10;;;16.20;99.90;;;;;;5031127;28;20132;-85
2021/08/04 02:08:32;;;;;;;8.13;1.70;;;16.20;99.90;;;;;;5030858;28;20044;-84
2021/08/04 02:11:23;;;;;;;5.35;1.70;;;16.10;99.90;;;;;;5014712;28;20033;-84
2021/08/04 02:14:00;;;;;;;4.82;1.90;;;16.20;99.90;;;;;;5030914;28;20021;-86
2021/08/04 02:16:33;;;;;;;4.80;1.70;;;16.20;99.90;;;;;;5032107;28;20084;-85
2021/08/04 02:19:30;;;;;;;5.35;2.05;;;16.20;99.90;;;;;;5030576;28;20025;-85
2021/08/04 02:22:05;;;;;;;4.53;1.92;;;16.20;99.90;;;;;;5030501;28;20449;-85
2021/08/04 02:24:35;;;;;;;5.28;2.00;;;16.20;99.90;;;;;;5030870;28;20120;-86
2021/08/04 02:27:02;;;;;;;4.55;2.15;;;16.20;99.90;;;;;;5031982;28;20037;-85
2021/08/04 02:29:34;;;;;;;2.85;1.73;;;16.20;99.90;;;;;;5030810;28;20033;-85
2021/08/04 02:32:01;;;;;;;4.28;2.22;;;16.20;99.90;;;;;;5031769;28;20517;-85
2021/08/04 02:34:28;;;;;;;5.70;1.73;;;16.10;99.90;;;;;;5014518;28;20026;-84
2021/08/04 02:36:54;;;;;;;3.03;1.98;;;16.10;99.90;;;;;;5030535;28;20040;-84
2021/08/04 02:39:21;;;;;;;6.25;2.25;;;16.10;99.90;;;;;;5030402;28;20386;-84
2021/08/04 02:41:47;;;;;;;3.00;2.00;;;16.10;99.90;;;;;;5030624;28;20033;-84
2021/08/04 02:44:15;;;;;;;4.18;2.13;;;16.20;99.90;;;;;;5030779;28;20107;-85
2021/08/04 02:46:47;;;;;;;3.15;1.80;;;16.20;99.90;;;;;;5030368;28;20049;-84
2021/08/04 02:49:15;;;;;;;3.60;1.75;;;16.10;99.90;;;;;;5014557;28;20072;-85
2021/08/04 02:51:42;;;;;;;3.35;1.88;;;16.00;99.90;;;;;;5033122;28;20079;-84
2021/08/04 02:54:12;;;;;;;3.35;2.05;;;16.00;99.90;;;;;;5035465;28;20026;-85
2021/08/04 02:56:38;;;;;;;3.35;1.95;;;16.00;99.90;;;;;;5035119;28;20060;-86
2021/08/04 02:59:04;;;;;;;4.18;2.13;;;16.00;99.90;;;;;;5035466;28;20458;-85
2021/08/04 03:01:29;;;;;;;3.05;2.00;;;16.00;99.90;;;;;;5035275;28;20041;-85
2021/08/04 03:03:55;;;;;;;6.93;2.50;;;16.00;99.90;;;;;;5035164;28;20034;-84
2021/08/04 03:06:21;;;;;;;2.95;1.70;;;16.00;99.90;;;;;;5034926;28;20044;-85
2021/08/04 03:08:47;;;;;;;5.28;2.47;;;16.00;99.90;;;;;;5034130;28;20041;-85
2021/08/04 03:11:12;;;;;;;3.28;2.15;;;16.00;99.90;;;;;;5033688;28;20037;-85
2021/08/04 03:13:38;;;;;;;4.82;2.45;;;16.00;99.90;;;;;;5033868;28;20048;-86
2021/08/04 03:16:04;;;;;;;4.72;2.53;;;16.00;99.90;;;;;;5035048;28;20184;-86
2021/08/04 03:18:30;;;;;;;4.82;2.38;;;16.00;99.90;;;;;;5034847;28;20065;-85
2021/08/04 03:20:57;;;;;;;4.85;2.33;;;16.00;99.90;;;;;;5035121;28;20123;-85
2021/08/04 03:23:23;;;;;;;4.60;2.47;;;16.00;99.90;;;;;;5034932;28;20619;-86
2021/08/04 03:25:49;;;;;;;6.30;2.45;;;15.90;99.90;;;;;;5035067;28;20029;-85
2021/08/04 03:28:16;;;;;;;6.90;2.13;;;15.90;99.90;;;;;;5034677;28;20080;-85
2021/08/04 03:30:41;;;;;;;3.53;2.42;;;16.00;99.90;;;;;;5034710;28;20037;-86
2021/08/04 03:33:07;;;;;;;5.43;2.30;;;16.00;99.90;;;;;;5034491;28;20517;-84
2021/08/04 03:35:33;;;;;;;5.80;2.20;;;16.00;99.90;;;;;;5033554;28;20141;-85
2021/08/04 03:37:59;;;;;;;3.45;2.22;;;16.00;99.90;;;;;;5034830;28;20034;-84
2021/08/04 03:40:25;;;;;;;5.90;2.40;;;16.00;99.90;;;;;;5034060;28;20033;-85
2021/08/04 03:42:51;;;;;;;4.15;2.28;;;16.00;99.90;;;;;;4985536;28;20494;-84
2021/08/04 03:45:17;;;;;;;5.78;2.30;;;16.00;99.90;;;;;;5029819;28;20034;-84
2021/08/04 03:47:42;;;;;;;3.95;2.38;;;16.00;99.90;;;;;;5031143;28;20045;-75
2021/08/04 03:50:09;;;;;;;5.90;2.08;;;16.00;99.90;;;;;;5033883;28;20038;-74
2021/08/04 03:52:36;;;;;;;5.00;2.83;;;16.00;99.90;;;;;;5034152;28;20033;-73
2021/08/04 03:55:03;;;;;;;4.15;2.53;;;16.00;99.90;;;;;;5053004;28;20041;-74
2021/08/04 03:57:28;;;;;;;7.97;2.58;;;16.00;99.90;;;;;;5053726;28;20063;-73
2021/08/04 03:59:54;;;;;;;4.32;2.38;;;16.10;99.90;;;;;;5052472;28;20498;-74
2021/08/04 04:02:20;;;;;;;6.22;2.33;;;16.10;99.90;;;;;;5038132;28;20038;-73
2021/08/04 04:04:45;;;;;;;6.22;2.72;;;16.10;99.90;;;;;;5032903;28;20036;-73
2021/08/04 04:07:12;;;;;;;4.80;2.63;;;16.00;99.90;;;;;;5032009;28;20391;-76
2021/08/04 04:09:38;;;;;;;4.75;2.47;;;16.00;99.90;;;;;;5032036;28;20033;-74
2021/08/04 04:12:05;;;;;;;3.40;2.50;;;15.90;99.90;;;;;;5033533;28;20034;-77
2021/08/04 04:14:30;;;;;;;5.53;2.75;;;15.90;99.90;;;;;;5034044;28;20032;-80
2021/08/04 04:16:56;;;;;;;3.17;2.03;;;15.90;99.90;;;;;;5033693;28;20029;-81
2021/08/04 04:19:22;;;;;;;6.07;2.38;;;16.00;99.90;;;;;;5033533;28;20483;-81
2021/08/04 04:21:48;;;;;;;4.75;2.30;;;15.90;99.90;;;;;;5033603;28;20030;-80
2021/08/04 04:24:13;;;;;;;5.82;2.58;;;15.90;99.90;;;;;;5033304;28;20029;-77
2021/08/04 04:26:39;;;;;;;4.95;3.00;;;15.90;99.90;;;;;;5033319;28;20033;-76
2021/08/04 04:29:05;;;;;;;5.15;2.85;;;15.90;99.90;;;;;;5032109;28;20042;-74
2021/08/04 04:31:31;;;;;;;6.68;3.30;;;15.90;99.90;;;;;;5031836;28;20033;-76
2021/08/04 04:33:56;;;;;;;6.40;2.50;;;15.90;99.90;;;;;;5033185;28;20482;-79
2021/08/04 04:36:22;;;;;;;5.32;2.95;;;15.90;99.90;;;;;;5032847;28;20029;-77
2021/08/04 04:38:48;;;;;;;4.35;2.20;;;15.90;99.90;;;;;;5033576;28;20121;-75
2021/08/04 04:41:14;;;;;;;4.55;2.22;;;15.90;99.90;;;;;;5031963;28;20052;-74
2021/08/04 04:43:41;;;;;;;4.25;2.67;;;15.90;99.90;;;;;;5033030;28;20052;-76
2021/08/04 04:46:08;;;;;;;5.88;2.50;;;15.90;99.90;;;;;;5031681;28;20140;-75
2021/08/04 04:48:34;;;;;;;5.38;2.83;;;16.00;99.90;;;;;;5028420;28;20037;-74
2021/08/04 04:51:00;;;;;;;6.15;2.55;;;16.00;99.90;;;;;;5011897;28;20387;-75
2021/08/04 04:53:27;;;;;;;3.40;2.42;;;16.00;99.90;;;;;;5013384;28;20116;-73
2021/08/04 04:55:54;;;;;;;3.70;2.60;;;16.00;99.90;;;;;;5013254;28;20037;-75
2021/08/04 04:58:19;;;;;;;5.55;2.78;;;16.00;99.90;;;;;;5012831;28;20049;-75
2021/08/04 05:00:45;;;;;;;5.78;3.55;;;16.00;99.90;;;;;;5016256;28;20073;-75
2021/08/04 05:03:11;;;;;;;4.53;2.60;;;15.90;99.90;;;;;;5032586;28;20025;-75
2021/08/04 05:05:37;;;;;;;4.05;2.55;;;15.90;99.90;;;;;;5032653;28;20030;-75
2021/08/04 05:08:03;;;;;;;6.40;2.83;;;15.90;99.90;;;;;;5032475;28;20029;-75
2021/08/04 05:10:29;;;;;;;5.53;2.70;;;15.90;99.90;;;;;;5032710;28;20105;-75
2021/08/04 05:12:54;;;;;;;3.63;2.42;;;15.90;99.90;;;;;;5032533;28;20116;-75
2021/08/04 05:15:20;;;;;;;5.40;3.03;;;15.90;99.90;;;;;;5032548;28;20479;-74
2021/08/04 05:17:46;;;;;;;6.07;2.70;;;16.00;99.90;;;;;;5031189;28;20087;-74
2021/08/04 05:20:13;;;;;;;4.63;2.83;;;16.10;99.90;;;;;;5032411;28;20033;-75
2021/08/04 05:22:39;;;;;;;4.85;2.67;;;16.20;99.90;;;;;;5032642;28;20041;-75
2021/08/04 05:25:06;;;;;;;4.90;2.78;;;16.20;99.90;;;;;;5031028;28;20037;-74
2021/08/04 05:27:32;;;;;;;4.53;2.78;;;16.20;99.90;;;;;;5031080;28;20348;-74
2021/08/04 05:29:58;;;;;;;4.07;2.88;;;16.20;99.90;;;;;;5032247;28;20033;-74
2021/08/04 05:32:23;;;;;;;11.07;3.40;;;16.20;99.90;;;;;;5032080;28;20029;-74
2021/08/04 05:34:49;;;;;;;5.68;2.65;;;16.20;99.90;;;;;;5032264;28;20505;-74
2021/08/04 05:37:15;;;;;;;5.97;3.10;;;16.20;99.90;;;;;;5032388;28;20033;-75
2021/08/04 05:39:41;;;;;;;4.80;2.60;;;16.20;99.90;;;;;;5032347;28;20034;-75
2021/08/04 05:42:07;;;;;;;5.88;2.95;;;16.20;99.90;;;;;;5032061;28;20037;-75
2021/08/04 05:44:32;;;;;;;4.82;3.15;;;16.30;99.90;;;;;;5032041;28;20030;-69
2021/08/04 05:46:58;;;;;;;5.05;2.53;;;16.20;99.90;;;;;;5031790;28;20383;-73
2021/08/04 05:49:24;;;;;;;3.80;2.88;;;16.30;99.90;;;;;;5032060;28;20391;-77
2021/08/04 05:51:51;;;;;;;5.18;2.85;;;16.30;99.90;;;;;;5032089;28;20029;-72
2021/08/04 05:54:19;;;;;;;4.63;2.50;;;16.40;99.90;;;;;;5032028;28;20048;-74
2021/08/04 05:56:45;;;;;;;5.55;3.03;;;16.40;99.90;;;;;;5032034;28;20570;-74
2021/08/04 05:59:11;;;;;;;6.28;2.50;;;16.50;99.90;;;;;;5032263;28;20475;-74
2021/08/04 06:01:37;;;;;;;4.55;3.00;;;16.60;99.90;;;;;;5034366;28;20095;-74
2021/08/04 06:04:03;;;;;;;3.97;2.42;;;16.60;99.90;;;;;;5031880;28;20021;-73
2021/08/04 06:06:28;;;;;;;4.95;2.85;;;16.60;99.90;;;;;;5031640;28;20032;-70
2021/08/04 06:08:55;;;;;;;4.72;3.00;;;16.60;99.90;;;;;;5031683;28;20025;-69
2021/08/04 06:11:22;;;;;;;5.45;2.70;;;16.50;99.90;;;;;;5031725;28;20029;-69
2021/08/04 06:13:48;;;;;;;7.70;2.85;;;16.50;99.90;;;;;;5031652;28;20104;-70
2021/08/04 06:16:14;;;;;;;4.13;2.35;;;16.50;99.90;;;;;;5031545;28;20034;-69
2021/08/04 06:18:40;;;;;;;5.55;2.53;;;16.50;99.90;;;;;;5031919;28;20026;-69
2021/08/04 06:21:05;;;;;;;5.63;2.78;;;16.50;99.90;;;;;;5047121;28;20041;-69
2021/08/04 06:23:31;;;;;;;3.78;2.50;;;16.50;99.90;;;;;;5031610;28;20060;-69
2021/08/04 06:25:57;;;;;;;4.47;3.13;;;16.40;99.90;;;;;;5031804;28;20108;-75
2021/08/04 06:28:23;;;;;;;3.92;2.38;;;16.60;99.90;;;;;;5015986;28;20065;-75
2021/08/04 06:30:49;;;;;;;4.20;2.45;;;16.70;99.90;;;;;;5015898;28;20053;-75
2021/08/04 06:33:15;;;;;;;5.38;2.72;;;16.80;99.90;;;;;;5015949;28;20065;-75
2021/08/04 06:35:41;;;;;;;5.25;2.50;;;16.70;99.90;;;;;;5015676;28;20046;-74
2021/08/04 06:38:07;;;;;;;5.47;2.80;;;16.80;99.90;;;;;;5014529;28;20121;-76
2021/08/04 06:40:33;;;;;;;4.13;2.88;;;16.80;99.90;;;;;;5015993;28;20113;-75
2021/08/04 06:42:58;;;;;;;4.85;2.63;;;16.70;99.90;;;;;;5014290;28;20037;-76
2021/08/04 06:45:25;;;;;;;6.53;2.70;;;16.70;99.90;;;;;;5015361;28;20029;-76
2021/08/04 06:47:50;;;;;;;4.00;2.38;;;16.70;99.90;;;;;;5015358;28;20034;-75
2021/08/04 06:50:16;;;;;;;5.88;3.00;;;16.90;99.90;;;;;;5015358;28;20030;-76
2021/08/04 06:52:42;;;;;;;4.47;2.63;;;16.90;99.90;;;;;;4997998;28;20099;-76
2021/08/04 06:55:09;;;;;;;5.25;2.67;;;16.80;99.90;;;;;;5014018;28;20497;-75
2021/08/04 06:57:34;;;;;;;4.22;2.60;;;16.90;99.90;;;;;;5015437;28;20042;-74
2021/08/04 07:00:00;;;;;;;6.63;3.42;;;17.00;99.90;;;;;;5014210;28;20517;-75
2021/08/04 07:02:26;;;;;;;4.85;2.85;;;17.00;99.90;;;;;;5015378;28;20387;-74
2021/08/04 07:04:52;;;;;;;4.57;2.25;;;17.00;99.90;;;;;;5013898;28;20029;-75
2021/08/04 07:07:17;;;;;;;6.40;2.97;;;17.20;99.90;;;;;;5014799;28;20034;-74
2021/08/04 07:09:43;;;;;;;8.98;3.25;;;17.30;99.90;;;;;;5015080;28;20065;-74
2021/08/04 07:12:11;;;;;;;5.40;2.90;;;17.20;99.90;;;;;;5013743;28;20037;-74
2021/08/04 07:14:38;;;;;;;5.50;2.42;;;17.40;99.90;;;;;;5013381;28;20041;-74
2021/08/04 07:17:04;;;;;;;4.10;2.58;;;17.50;99.90;;;;;;5013521;28;20094;-74
2021/08/04 07:19:30;;;;;;;4.03;2.40;;;17.70;99.90;;;;;;5013463;28;20056;-74
2021/08/04 07:21:56;;;;;;;4.47;2.50;;;17.70;99.90;;;;;;5013813;28;20541;-74
2021/08/04 07:24:21;;;;;;;4.88;2.50;;;17.70;99.90;;;;;;4997369;28;20116;-74
2021/08/04 07:26:48;;;;;;;4.15;2.53;;;17.80;99.90;;;;;;5013600;28;20102;-74
2021/08/04 07:29:13;;;;;;;5.53;2.40;;;17.90;99.90;;;;;;5014557;28;20034;-74
2021/08/04 07:31:40;;;;;;;3.55;2.25;;;18.00;99.90;;;;;;5013182;28;20113;-75
2021/08/04 07:34:08;;;;;;;4.72;2.50;;;18.00;99.90;;;;;;5014633;28;20034;-75
2021/08/04 07:36:35;;;;;;;4.43;2.35;;;18.10;99.90;;;;;;5012060;28;20034;-75
2021/08/04 07:39:02;;;;;;;4.13;2.47;;;18.20;99.90;;;;;;5012142;28;20045;-75
2021/08/04 07:41:28;;;;;;;6.28;2.75;;;18.30;99.90;;;;;;5013295;28;20076;-75
2021/08/04 07:43:54;;;;;;;4.93;2.70;;;18.40;99.90;;;;;;5014128;28;20030;-75
2021/08/04 07:46:22;;;;;;;5.10;2.83;;;18.40;99.90;;;;;;5012652;28;20487;-73
2021/08/04 07:48:48;;;;;;;3.85;2.55;;;18.30;99.90;;;;;;5014231;28;20037;-72
2021/08/04 07:51:15;;;;;;;6.30;2.65;;;18.40;99.90;;;;;;5015120;28;20040;-73
2021/08/04 07:53:41;;;;;;;3.67;2.35;;;18.40;99.90;;;;;;5033299;28;20026;-73
2021/08/04 07:56:08;;;;;;;4.72;2.60;;;18.10;99.90;;;;;;5033537;28;20075;-72
2021/08/04 07:58:33;;;;;;;5.85;2.00;;;18.00;99.90;;;;;;5032444;28;20029;-73
2021/08/04 08:00:59;;;;;;;2.97;2.10;;;17.90;99.90;;;;;;5016290;28;20108;-73
2021/08/04 08:03:25;;;;;;;4.82;2.45;;;18.10;99.90;;;;;;5033531;28;20041;-73
2021/08/04 08:05:51;;;;;;;3.58;2.15;;;18.40;99.90;;;;;;5033899;28;20032;-74
2021/08/04 08:08:17;;;;;;;4.00;2.45;;;18.30;99.90;;;;;;5033925;28;20112;-73
2021/08/04 08:10:43;;;;;;;4.75;2.60;;;18.40;99.90;;;;;;5036277;28;20053;-74
2021/08/04 08:13:10;;;;;;;3.95;2.38;;;18.30;99.90;;;;;;5033517;28;20029;-73
2021/08/04 08:15:36;;;;;;;5.38;2.30;;;18.60;99.90;;;;;;5033573;28;20578;-73
2021/08/04 08:18:07;;;;;;;4.90;2.30;;;18.70;99.90;;;;;;5033453;28;20036;-73
2021/08/04 08:20:34;;;;;;;3.85;2.50;;;18.50;99.90;;;;;;5032223;28;20112;-73
2021/08/04 08:23:00;;;;;;;7.40;2.95;;;18.70;99.90;;;;;;5032338;28;20045;-73
2021/08/04 08:25:26;;;;;;;5.50;2.70;;;18.50;99.90;;;;;;5033271;28;20025;-73
2021/08/04 08:27:52;;;;;;;4.35;2.53;;;18.50;99.90;;;;;;5032243;28;20040;-74
2021/08/04 08:30:18;;;;;;;9.95;5.15;;;18.70;99.90;;;;;;5033309;28;20040;-73
2021/08/04 08:32:48;;;;;;;4.25;2.85;;;18.70;99.90;;;;;;5031661;28;20056;-73
2021/08/04 08:35:16;;;;;;;3.85;2.28;;;19.00;99.90;;;;;;5033248;28;20371;-73
2021/08/04 08:37:44;;;;;;;5.80;2.17;;;19.00;99.90;;;;;;5031621;28;20042;-73
2021/08/04 08:40:12;;;;;;;4.97;2.42;;;19.40;99.90;;;;;;5033111;28;20037;-73
2021/08/04 08:42:41;;;;;;;5.18;2.25;;;19.40;99.90;;;;;;5048138;28;20048;-73
2021/08/04 08:45:08;;;;;;;5.00;2.30;;;19.30;99.90;;;;;;5033064;28;20033;-73
2021/08/04 08:47:34;;;;;;;4.90;2.50;;;19.70;99.90;;;;;;5032506;28;20041;-73
2021/08/04 08:50:02;;;;;;;3.65;2.10;;;19.50;99.90;;;;;;5033040;28;20045;-73
2021/08/04 08:52:28;;;;;;;4.78;2.33;;;19.80;99.90;;;;;;5032928;28;20064;-73
2021/08/04 08:54:54;;;;;;;3.70;1.90;;;20.00;99.90;;;;;;5031912;28;20068;-73
2021/08/04 08:57:20;;;;;;;3.65;2.28;;;19.90;99.90;;;;;;5015344;28;20547;-73
2021/08/04 08:59:46;;;;;;;4.70;2.45;;;19.60;99.90;;;;;;5032727;28;20040;-73
2021/08/04 09:02:12;;;;;;;3.38;2.13;;;19.80;99.90;;;;;;5032860;28;20037;-73
2021/08/04 09:04:38;;;;;;;4.07;2.10;;;20.10;99.90;;;;;;5032298;28;20037;-73
2021/08/04 09:07:04;;;;;;;3.45;2.10;;;19.90;99.90;;;;;;5032387;28;20033;-73
2021/08/04 09:09:33;;;;;;;2.92;1.90;;;19.70;99.90;;;;;;5031093;28;20104;-73
2021/08/04 09:12:10;;;;;;;5.13;2.00;;;19.50;99.90;;;;;;5031237;28;20044;-73
2021/08/04 09:14:38;;;;;;;4.28;1.85;;;19.40;99.90;;;;;;5032679;28;20033;-74
2021/08/04 09:17:12;;;;;;;5.68;2.13;;;19.50;99.90;;;;;;5031379;28;20036;-73
2021/08/04 09:19:51;;;;;;;4.82;2.05;;;19.70;99.90;;;;;;5032729;28;20042;-73
2021/08/04 09:22:24;;;;;;;4.70;2.40;;;19.90;99.90;;;;;;5031872;28;20034;-73
2021/08/04 09:24:57;;;;;;;6.60;2.97;;;19.70;99.90;;;;;;5031386;28;20026;-73
2021/08/04 09:27:50;;;;;;;3.47;2.40;;;19.60;99.90;;;;;;5032259;28;20393;-73
2021/08/04 09:30:25;;;;;;;4.70;2.65;;;19.10;99.90;;;;;;5032509;28;20036;-73
2021/08/04 09:32:54;;;;;;;4.72;2.45;;;19.00;99.90;;;;;;5032296;28;20037;-73
2021/08/04 09:35:22;;;;;;;3.97;2.60;;;19.30;99.90;;;;;;5031622;28;20494;-75
2021/08/04 09:37:49;;;;;;;4.85;3.05;;;19.40;99.90;;;;;;5032190;28;20034;-73
2021/08/04 09:40:21;;;;;;;5.20;3.03;;;19.40;99.90;;;;;;5031081;28;20429;-74
2021/08/04 09:42:52;;;;;;;7.43;3.25;;;19.50;99.90;;;;;;5031930;28;20041;-74
2021/08/04 09:45:24;;;;;;;;;;;19.30;99.90;;;;;;5032622;28;20025;-73
2021/08/04 09:48:01;;;;;;;5.72;2.80;;;19.40;99.90;;;;;;5030748;28;19996;-77
2021/08/04 09:50:50;;;;;;;4.07;2.90;;;19.30;99.90;;;;;;5029653;28;20045;-75
2021/08/04 09:53:32;;;;;;;4.28;2.60;;;19.30;99.90;;;;;;5030695;28;20076;-75
2021/08/04 09:56:20;;;;;;;4.93;2.95;;;19.40;99.90;;;;;;5032054;28;20033;-74
2021/08/04 09:58:52;;;;;;;6.30;2.65;;;19.10;99.90;;;;;;5027452;28;20597;-74
2021/08/04 10:01:22;;;;;;;4.93;2.88;;;19.20;99.90;;;;;;5014838;28;20034;-73
2021/08/04 10:04:09;;;;;;;7.60;2.93;;;19.30;99.90;;;;;;5023812;28;20038;-73
2021/08/04 10:06:40;;;;;;;4.45;2.67;;;19.30;99.90;;;;;;4998638;28;20119;-75
2021/08/04 10:09:11;;;;;;;5.53;2.33;;;19.30;99.90;;;;;;5015199;28;20067;-78
2021/08/04 10:11:50;;;;;;;3.95;2.20;;;19.00;99.90;;;;;;5014866;28;20034;-73
2021/08/04 10:14:21;;;;;;;4.93;2.58;;;18.90;99.90;;;;;;5022608;28;20021;-75
2021/08/04 10:16:50;;;;;;;3.50;2.30;;;18.90;99.90;;;;;;5055436;28;20485;-72
2021/08/04 10:19:17;;;;;;;3.17;2.17;;;19.10;99.90;;;;;;5054503;28;20041;-72
2021/08/04 10:21:49;;;;;;;2.85;2.10;;;18.90;99.90;;;;;;5054592;28;20123;-72
2021/08/04 10:24:16;;;;;;;3.70;2.30;;;19.00;99.90;;;;;;5053724;28;20108;-71
2021/08/04 10:26:42;;;;;;;5.10;1.73;;;19.30;99.90;;;;;;5037493;28;20508;-72
2021/08/04 10:29:10;;;;;;;2.53;1.70;;;19.40;99.90;;;;;;5055831;28;20033;-72
2021/08/04 10:31:39;;;;;;;4.32;2.30;;;19.40;99.90;;;;;;5055188;28;20033;-72
2021/08/04 10:34:07;;;;;;;3.20;2.03;;;19.50;99.90;;;;;;5055585;28;20033;-72
2021/08/04 10:36:44;;;;;;;2.38;1.85;;;19.60;99.90;;;;;;5054222;28;20029;-72
2021/08/04 10:39:13;;;;;;;3.17;2.08;;;19.80;99.90;;;;;;5055633;28;20086;-71
2021/08/04 10:41:57;;;;;;;3.05;2.00;;;19.70;99.90;;;;;;5037528;28;20036;-71
2021/08/04 10:44:23;;;;;;;4.93;2.58;;;19.90;99.90;;;;;;5055198;28;20021;-71
2021/08/04 10:46:50;;;;;;;4.80;2.90;;;20.20;99.90;;;;;;5054921;28;20686;-72
2021/08/04 10:49:20;;;;;;;3.65;2.38;;;20.00;99.90;;;;;;5053858;28;20041;-71
2021/08/04 10:51:55;;;;;;;5.45;3.25;;;20.10;99.90;;;;;;5055037;28;20036;-71
2021/08/04 10:54:24;;;;;;;4.28;2.65;;;20.50;99.90;;;;;;5055043;28;20033;-72
2021/08/04 10:56:53;;;;;;;3.10;2.00;;;20.70;99.90;;;;;;5055120;28;20033;-71
2021/08/04 10:59:29;;;;;;;4.28;2.05;;;20.70;99.90;;;;;;5054938;28;20455;-71
2021/08/04 11:02:14;;;;;;;4.07;2.50;;;20.70;99.90;;;;;;5055011;28;20075;-71
2021/08/04 11:04:43;;;;;;;3.80;2.00;;;20.60;99.90;;;;;;5054783;28;20025;-71
2021/08/04 11:07:19;;;;;;;3.95;1.70;;;20.90;99.90;;;;;;5055096;28;20494;-71
2021/08/04 11:09:48;;;;;;;5.10;2.60;;;20.90;99.90;;;;;;5054436;28;20551;-70
2021/08/04 11:12:37;;;;;;;3.90;2.20;;;20.90;99.90;;;;;;5054537;28;20394;-70
2021/08/04 11:15:21;;;;;;;5.13;2.10;;;20.90;99.90;;;;;;5051576;28;20048;-71
2021/08/04 11:18:03;;;;;;;4.38;1.67;;;20.80;99.90;;;;;;5053289;28;20036;-70
2021/08/04 11:20:31;;;;;;;3.40;2.20;;;20.80;99.90;;;;;;5054923;28;20040;-73
2021/08/04 11:22:57;;;;;;;5.03;2.53;;;20.70;99.90;;;;;;5053257;28;20084;-75
2021/08/04 11:25:41;;;;;;;3.38;2.05;;;20.70;99.90;;;;;;5054418;28;20485;-75
2021/08/04 11:28:16;;;;;;;3.10;1.70;;;20.80;99.90;;;;;;5053521;28;20033;-76
2021/08/04 11:30:49;;;;;;;3.42;1.80;;;20.70;99.90;;;;;;5054324;28;20519;-76
2021/08/04 11:33:18;;;;;;;2.97;1.80;;;20.70;99.90;;;;;;5053775;28;20091;-76
2021/08/04 11:35:45;;;;;;;3.22;2.10;;;20.90;99.90;;;;;;5054343;28;20563;-76
2021/08/04 11:38:11;;;;;;;4.35;2.95;;;20.90;99.90;;;;;;5054313;28;20064;-76
2021/08/04 11:40:37;;;;;;;3.13;1.90;;;20.90;99.90;;;;;;5052736;28;20486;-76
2021/08/04 11:43:03;;;;;;;3.13;1.67;;;20.60;99.90;;;;;;5054372;28;20041;-76
2021/08/04 11:45:29;;;;;;;3.35;1.95;;;20.70;99.90;;;;;;5052571;28;20032;-76
2021/08/04 11:47:55;;;;;;;4.10;1.88;;;21.00;99.90;;;;;;5052811;28;20041;-77
2021/08/04 11:50:21;;;;;;;4.70;2.10;;;20.90;99.90;;;;;;5052773;28;20359;-76
2021/08/04 11:52:48;;;;;;;3.80;2.30;;;21.00;99.90;;;;;;5052626;28;20371;-76
2021/08/04 11:55:15;;;;;;;3.50;2.05;;;21.00;99.90;;;;;;5053856;28;20474;-78
2021/08/04 11:57:48;;;;;;;3.72;2.10;;;20.80;99.90;;;;;;5054039;28;20119;-76
2021/08/04 12:00:17;;;;;;;3.83;2.00;;;20.80;99.90;;;;;;5053938;28;20025;-76
2021/08/04 12:02:44;;;;;;;3.55;1.80;;;20.80;99.90;;;;;;5053577;28;20120;-77
2021/08/04 12:05:15;;;;;;;4.47;2.10;;;21.00;99.90;;;;;;5052828;28;20028;-77
2021/08/04 12:07:42;;;;;;;4.43;2.08;;;20.80;99.90;;;;;;5052569;28;20119;-77
2021/08/04 12:10:16;;;;;;;2.42;1.60;;;21.00;99.90;;;;;;5052275;28;20369;-78
2021/08/04 12:12:49;;;;;;;3.53;1.83;;;21.10;99.90;;;;;;5052746;28;20489;-78
2021/08/04 12:15:26;;;;;;;20.48;10.25;;;21.20;99.90;;;;;;5049084;28;20044;-78
2021/08/04 12:18:04;;;;;;;5.75;2.53;;;20.80;99.90;;;;;;5052420;28;20477;-77
2021/08/04 12:20:37;;;;;;;3.15;1.90;;;21.10;99.90;;;;;;5053369;28;20044;-77
2021/08/04 12:23:11;;;;;;;4.13;2.17;;;21.40;99.90;;;;;;5052921;28;20078;-75
2021/08/04 12:25:39;;;;;;;3.22;1.77;;;21.50;99.90;;;;;;5036121;28;20103;-76
2021/08/04 12:28:07;;;;;;;2.63;1.80;;;21.70;99.90;;;;;;5053767;28;20040;-77
2021/08/04 12:30:43;;;;;;;2.65;1.85;;;21.70;99.90;;;;;;5035596;28;20112;-76
2021/08/04 12:33:19;;;;;;;3.42;1.75;;;21.70;99.90;;;;;;5052225;28;20044;-76
2021/08/04 12:36:01;;;;;;;6.10;2.10;;;21.50;99.90;;;;;;5051569;28;20043;-76
2021/08/04 12:38:36;;;;;;;3.42;1.75;;;21.50;99.90;;;;;;5052180;28;20041;-77
2021/08/04 12:41:03;;;;;;;3.20;1.80;;;21.70;99.90;;;;;;5053072;28;20029;-77
2021/08/04 12:43:38;;;;;;;3.33;1.50;;;22.10;99.90;;;;;;5052117;28;20033;-77
2021/08/04 12:46:04;;;;;;;4.20;1.90;;;22.50;99.90;;;;;;5051599;28;20045;-77
2021/08/04 12:48:48;;;;;;;4.28;1.60;;;22.50;99.90;;;;;;5051992;28;20071;-77
2021/08/04 12:51:23;;;;;;;4.85;1.90;;;22.60;99.70;;;;;;5051640;28;20044;-77
2021/08/04 12:54:00;;;;;;;4.85;1.67;;;22.30;99.90;;;;;;5051788;28;20040;-77
2021/08/04 12:56:40;;;;;;;3.70;1.80;;;22.10;99.90;;;;;;5051507;28;20438;-77
2021/08/04 12:59:08;;;;;;;2.83;1.67;;;22.10;99.90;;;;;;5052685;28;20045;-77